Time;durP1;ratioP1;P1;durP2;ratioP2;P2;SDS_P1;SDS_P2;PMS_P1;PMS_P2;Temp;Humidity;BMP_temperature;BMP_pressure;BME280_temperature;BME280_humidity;BME280_pressure;Samples;Min_cycle;Max_cycle;Signal;HPM_P1;HPM_P2
2022/12/28 00:02:22;;;;;;;4.20;3.17;;;2.50;99.90;;;;;;5013055;28;20199;-91
2022/12/28 00:04:50;;;;;;;5.68;3.67;;;2.50;99.90;;;;;;5025073;28;20230;-91
2022/12/28 00:07:19;;;;;;;4.20;3.80;;;2.40;99.90;;;;;;5033305;28;20293;-91
2022/12/28 00:09:47;;;;;;;5.55;4.30;;;2.40;99.90;;;;;;5033086;28;20206;-91
2022/12/28 00:12:15;;;;;;;5.85;3.78;;;2.40;99.90;;;;;;5033107;28;20231;-90
2022/12/28 00:14:44;;;;;;;4.38;3.45;;;2.40;99.90;;;;;;5032638;28;20217;-91
2022/12/28 00:17:14;;;;;;;3.60;3.30;;;2.40;99.90;;;;;;5033113;28;20206;-91
2022/12/28 00:19:43;;;;;;;3.67;3.35;;;2.50;99.90;;;;;;5033010;28;20268;-91
2022/12/28 00:22:11;;;;;;;9.15;3.58;;;2.50;99.90;;;;;;5032849;28;20213;-91
2022/12/28 00:24:39;;;;;;;3.55;3.22;;;2.50;99.90;;;;;;5032384;28;20233;-90
2022/12/28 00:27:08;;;;;;;3.83;3.50;;;2.50;99.90;;;;;;5032560;28;20210;-90
2022/12/28 00:29:36;;;;;;;5.00;3.33;;;2.50;99.90;;;;;;5032847;28;20202;-90
2022/12/28 00:32:05;;;;;;;4.95;3.40;;;2.50;99.90;;;;;;5020696;28;20229;-91
2022/12/28 00:34:35;;;;;;;7.15;3.72;;;2.50;99.90;;;;;;5033350;28;20218;-91
2022/12/28 00:37:03;;;;;;;3.67;3.37;;;2.40;99.90;;;;;;5033021;28;20220;-91
2022/12/28 00:39:40;;;;;;;3.30;2.90;;;2.40;99.90;;;;;;5030819;28;20285;-91
2022/12/28 00:42:08;;;;;;;5.70;3.20;;;2.50;99.90;;;;;;5030871;28;20304;-91
2022/12/28 00:44:36;;;;;;;5.03;3.25;;;2.50;99.90;;;;;;5031243;28;20250;-90
2022/12/28 00:47:05;;;;;;;3.08;2.78;;;2.50;99.90;;;;;;5031996;28;20206;-91
2022/12/28 00:49:35;;;;;;;3.85;3.47;;;2.40;99.90;;;;;;5031737;28;20217;-90
2022/12/28 00:52:03;;;;;;;4.40;3.45;;;2.40;99.90;;;;;;5031841;28;20216;-90
2022/12/28 00:54:31;;;;;;;3.85;3.45;;;2.40;99.90;;;;;;5030954;28;20226;-91
2022/12/28 00:57:00;;;;;;;4.35;3.28;;;2.40;99.90;;;;;;5031368;28;20221;-90
2022/12/28 00:59:28;;;;;;;2.83;2.58;;;2.40;99.90;;;;;;5031668;28;20226;-91
2022/12/28 01:01:57;;;;;;;3.63;3.07;;;2.40;99.90;;;;;;5032043;28;20208;-92
2022/12/28 01:04:25;;;;;;;4.85;3.22;;;2.40;99.90;;;;;;5031128;28;20253;-92
2022/12/28 01:06:55;;;;;;;3.15;2.85;;;2.30;99.90;;;;;;5032080;28;20212;-91
2022/12/28 01:09:23;;;;;;;9.60;4.17;;;2.30;99.90;;;;;;5031136;28;20242;-91
2022/12/28 01:11:52;;;;;;;7.43;3.80;;;2.30;99.90;;;;;;5032410;28;20210;-91
2022/12/28 01:14:20;;;;;;;3.03;2.60;;;2.30;99.90;;;;;;5035675;28;20206;-91
2022/12/28 01:16:48;;;;;;;12.33;3.33;;;2.30;99.90;;;;;;5034574;28;20369;-91
2022/12/28 01:19:21;;;;;;;3.75;3.30;;;2.30;99.90;;;;;;5035242;28;20214;-92
2022/12/28 01:21:51;;;;;;;2.78;2.58;;;2.30;99.90;;;;;;5035121;28;20214;-91
2022/12/28 01:24:21;;;;;;;3.83;2.72;;;2.30;99.90;;;;;;5023894;28;20251;-91
2022/12/28 01:26:50;;;;;;;3.92;3.00;;;2.30;99.90;;;;;;5015402;28;20218;-90
2022/12/28 01:29:18;;;;;;;3.92;2.97;;;2.30;99.90;;;;;;5032747;28;20217;-91
2022/12/28 01:31:47;;;;;;;4.13;3.73;;;2.30;99.90;;;;;;5034728;28;20264;-91
2022/12/28 01:34:15;;;;;;;3.40;3.00;;;2.20;99.90;;;;;;5034764;28;20214;-91
2022/12/28 01:36:44;;;;;;;4.50;3.53;;;2.20;99.90;;;;;;5035002;28;20230;-91
2022/12/28 01:39:12;;;;;;;7.68;3.92;;;2.20;99.90;;;;;;5035739;28;20210;-91
2022/12/28 01:41:43;;;;;;;8.37;3.87;;;2.20;99.90;;;;;;5015279;28;20211;-91
2022/12/28 01:44:43;;;;;;;3.80;3.50;;;2.20;99.90;;;;;;5014709;28;20301;-91
2022/12/28 01:47:17;;;;;;;3.88;3.03;;;2.10;99.90;;;;;;4992265;28;20300;-91
2022/12/28 01:49:51;;;;;;;3.30;3.00;;;2.10;99.90;;;;;;5014568;28;20273;-91
2022/12/28 01:52:24;;;;;;;5.55;3.50;;;2.00;99.90;;;;;;5024771;28;20215;-91
2022/12/28 01:54:56;;;;;;;7.10;4.28;;;2.00;99.90;;;;;;5034157;28;20307;-90
2022/12/28 01:57:29;;;;;;;7.13;3.63;;;2.10;99.90;;;;;;5034094;28;20203;-91
2022/12/28 02:00:04;;;;;;;5.37;4.27;;;2.10;99.90;;;;;;5017599;28;20214;-91
2022/12/28 02:02:33;;;;;;;5.75;3.85;;;2.10;99.90;;;;;;5033767;28;20213;-91
2022/12/28 02:05:02;;;;;;;5.38;4.03;;;2.00;99.90;;;;;;5033834;28;20249;-91
2022/12/28 02:07:40;;;;;;;6.40;3.63;;;2.00;99.90;;;;;;5033402;28;20210;-91
2022/12/28 02:10:10;;;;;;;4.88;4.03;;;2.00;99.90;;;;;;5016159;28;20215;-91
2022/12/28 02:13:01;;;;;;;3.78;3.45;;;2.00;99.90;;;;;;5034628;28;20243;-91
2022/12/28 02:15:30;;;;;;;5.57;4.23;;;2.00;99.90;;;;;;5033854;28;20227;-91
2022/12/28 02:17:59;;;;;;;5.28;4.20;;;2.00;99.90;;;;;;5033692;28;20206;-91
2022/12/28 02:20:36;;;;;;;7.03;4.60;;;2.00;99.90;;;;;;5034100;28;20213;-91
2022/12/28 02:23:31;;;;;;;4.18;3.30;;;2.00;99.90;;;;;;5035069;28;20201;-90
2022/12/28 02:26:30;;;;;;;8.83;4.07;;;2.00;99.90;;;;;;5035359;28;20223;-90
2022/12/28 02:29:22;;;;;;;4.67;3.57;;;1.90;99.90;;;;;;5035723;28;20206;-90
2022/12/28 02:31:58;;;;;;;6.30;4.43;;;1.90;99.90;;;;;;5020880;28;20204;-90
2022/12/28 02:34:33;;;;;;;3.50;3.20;;;1.90;99.90;;;;;;5035861;28;20198;-90
2022/12/28 02:37:07;;;;;;;5.20;3.27;;;1.90;99.90;;;;;;5035316;28;20210;-91
2022/12/28 02:39:41;;;;;;;5.20;3.97;;;1.90;99.90;;;;;;5035624;28;20205;-91
2022/12/28 02:42:11;;;;;;;3.47;2.50;;;1.80;99.90;;;;;;5036050;28;20292;-91
2022/12/28 02:50:15;;;;;;;3.07;2.83;;;1.70;99.90;;;;;;5034493;28;20202;-91
2022/12/28 02:53:17;;;;;;;2.70;2.43;;;1.70;99.90;;;;;;5034848;28;20206;-91
2022/12/28 02:56:06;;;;;;;4.50;2.83;;;1.70;99.90;;;;;;5035068;28;20237;-91
2022/12/28 02:58:57;;;;;;;6.30;3.00;;;1.70;99.90;;;;;;5034992;28;20238;-91
2022/12/28 03:01:47;;;;;;;3.37;2.73;;;1.60;99.90;;;;;;5034590;28;20222;-91
2022/12/28 03:04:24;;;;;;;2.87;2.57;;;1.70;99.90;;;;;;5034572;28;20201;-91
2022/12/28 03:09:50;;;;;;;3.03;2.67;;;1.60;99.90;;;;;;5034589;28;20206;-92
2022/12/28 03:12:25;;;;;;;3.10;2.80;;;1.60;99.90;;;;;;5034728;28;20205;-91
2022/12/28 03:14:57;;;;;;;6.60;3.40;;;1.60;99.90;;;;;;5034461;28;20222;-91
2022/12/28 03:31:34;;;;;;;3.40;2.83;;;1.50;99.90;;;;;;4953850;29;20225;-91
2022/12/28 03:34:08;;;;;;;5.07;3.15;;;1.50;99.90;;;;;;4986807;28;20203;-92
2022/12/28 03:36:44;;;;;;;5.63;3.83;;;1.40;99.90;;;;;;5033609;28;20207;-90
2022/12/28 03:39:22;;;;;;;4.53;3.42;;;1.50;99.90;;;;;;5033853;28;20239;-90
2022/12/28 03:44:45;;;;;;;3.40;3.10;;;1.50;99.90;;;;;;5014350;28;20329;-90
2022/12/28 03:47:15;;;;;;;4.67;3.17;;;1.50;99.90;;;;;;5023671;28;20223;-91
2022/12/28 03:49:45;;;;;;;3.55;2.55;;;1.50;99.90;;;;;;5033856;28;20218;-90
2022/12/28 03:52:13;;;;;;;5.07;3.25;;;1.40;99.90;;;;;;5033515;28;20194;-90
2022/12/28 03:54:41;;;;;;;3.50;2.80;;;1.40;99.90;;;;;;5033616;28;20230;-91
2022/12/28 03:57:10;;;;;;;4.03;2.90;;;1.40;99.90;;;;;;5033266;28;20195;-91
2022/12/28 03:59:38;;;;;;;6.65;3.28;;;1.40;99.90;;;;;;5033333;28;20202;-91
2022/12/28 04:02:07;;;;;;;3.58;3.08;;;1.40;99.90;;;;;;5033729;28;20225;-90
2022/12/28 04:04:35;;;;;;;3.80;3.10;;;1.30;99.90;;;;;;5033246;28;20352;-91
2022/12/28 04:07:05;;;;;;;2.43;2.23;;;1.30;99.90;;;;;;5032998;28;20237;-92
2022/12/28 04:09:33;;;;;;;7.07;2.53;;;1.30;99.90;;;;;;5032825;28;20195;-90
2022/12/28 04:12:02;;;;;;;2.40;2.20;;;1.30;99.90;;;;;;5033165;28;20203;-90
2022/12/28 04:14:30;;;;;;;3.15;2.85;;;1.20;99.90;;;;;;5019480;28;20203;-90
2022/12/28 04:16:58;;;;;;;3.20;3.00;;;1.20;99.90;;;;;;5022296;28;20204;-90
2022/12/28 04:19:26;;;;;;;4.28;2.95;;;1.20;99.90;;;;;;5033898;28;20298;-90
2022/12/28 04:21:55;;;;;;;3.15;2.58;;;1.20;99.90;;;;;;5033864;28;20203;-92
2022/12/28 04:24:24;;;;;;;2.80;2.53;;;1.20;99.90;;;;;;5033020;28;20202;-91
2022/12/28 04:26:53;;;;;;;4.43;2.83;;;1.20;99.90;;;;;;5032815;28;20226;-90
2022/12/28 04:29:21;;;;;;;3.00;2.40;;;1.20;99.90;;;;;;5033474;28;20217;-90
2022/12/28 04:31:49;;;;;;;2.43;2.23;;;1.20;99.90;;;;;;5033221;28;20198;-91
2022/12/28 04:34:18;;;;;;;3.33;3.03;;;1.20;99.90;;;;;;5033082;28;20298;-91
2022/12/28 04:36:47;;;;;;;3.60;3.00;;;1.20;99.90;;;;;;5032928;28;20206;-91
2022/12/28 04:39:15;;;;;;;3.40;2.80;;;1.30;99.90;;;;;;5032841;28;20207;-91
2022/12/28 04:41:45;;;;;;;4.23;3.23;;;1.20;99.90;;;;;;5017503;28;20205;-91
2022/12/28 04:44:13;;;;;;;2.63;2.30;;;1.20;99.90;;;;;;5033104;28;20213;-91
2022/12/28 04:46:41;;;;;;;3.30;2.87;;;1.20;99.90;;;;;;5033565;28;20229;-91
2022/12/28 04:49:10;;;;;;;5.87;3.40;;;1.20;99.90;;;;;;5037111;28;20233;-91
2022/12/28 04:51:38;;;;;;;3.00;2.73;;;1.20;99.90;;;;;;5037102;28;20289;-90
2022/12/28 04:54:06;;;;;;;5.17;3.20;;;1.20;99.90;;;;;;5037092;28;20202;-90
2022/12/28 04:56:34;;;;;;;3.57;2.77;;;1.20;99.90;;;;;;5037240;28;20229;-91
2022/12/28 04:59:04;;;;;;;4.17;3.30;;;1.20;99.90;;;;;;5036600;28;20222;-91
2022/12/28 05:01:33;;;;;;;2.67;2.47;;;1.10;99.90;;;;;;5037406;28;20210;-90
2022/12/28 05:04:01;;;;;;;3.00;2.70;;;1.10;99.90;;;;;;5037077;28;20421;-91
2022/12/28 05:06:29;;;;;;;2.77;2.57;;;1.00;99.90;;;;;;5036641;28;20229;-90
2022/12/28 05:08:58;;;;;;;5.70;3.00;;;1.10;99.90;;;;;;5036589;28;20232;-90
2022/12/28 05:11:28;;;;;;;2.90;2.53;;;1.00;99.90;;;;;;5036858;28;20206;-91
2022/12/28 05:13:57;;;;;;;2.83;2.23;;;1.00;99.90;;;;;;5036563;28;20206;-91
2022/12/28 05:16:28;;;;;;;3.37;2.80;;;1.00;99.90;;;;;;5036266;28;20257;-92
2022/12/28 05:18:57;;;;;;;2.50;2.30;;;1.00;99.90;;;;;;5019965;28;20207;-91
2022/12/28 05:21:27;;;;;;;2.40;2.20;;;1.00;99.90;;;;;;5036297;28;20194;-91
2022/12/28 05:23:56;;;;;;;2.40;2.20;;;1.00;99.90;;;;;;5037455;28;20289;-90
2022/12/28 05:26:26;;;;;;;2.13;1.97;;;1.00;99.90;;;;;;5036563;28;20246;-90
2022/12/28 05:28:55;;;;;;;5.03;2.30;;;1.00;99.90;;;;;;5036032;28;20213;-90
2022/12/28 05:31:24;;;;;;;3.20;2.90;;;1.00;99.90;;;;;;5036433;28;20245;-91
2022/12/28 05:33:55;;;;;;;2.90;2.70;;;1.00;99.90;;;;;;5036540;28;20218;-90
2022/12/28 05:36:25;;;;;;;2.77;2.47;;;1.00;99.90;;;;;;5035481;28;20226;-90
2022/12/28 05:38:54;;;;;;;2.90;2.47;;;1.00;99.90;;;;;;5035956;28;20206;-90
2022/12/28 05:41:25;;;;;;;4.70;3.10;;;1.00;99.90;;;;;;5033830;28;20194;-91
2022/12/28 05:43:55;;;;;;;3.77;2.80;;;1.00;99.90;;;;;;5036086;28;20195;-90
2022/12/28 05:46:27;;;;;;;3.13;2.50;;;1.00;99.90;;;;;;5019971;28;20227;-91
2022/12/28 05:48:57;;;;;;;2.93;2.67;;;0.90;99.90;;;;;;5036145;28;20252;-90
2022/12/28 05:51:28;;;;;;;10.27;5.13;;;0.90;99.90;;;;;;5036242;28;20206;-90
2022/12/28 05:53:58;;;;;;;5.83;4.10;;;1.00;99.90;;;;;;5036323;28;20291;-90
2022/12/28 05:56:28;;;;;;;9.33;3.80;;;1.00;99.90;;;;;;5035933;28;20206;-91
2022/12/28 05:58:58;;;;;;;3.60;2.93;;;1.00;99.90;;;;;;5034929;28;20202;-89
2022/12/28 06:01:28;;;;;;;3.10;2.37;;;1.00;99.90;;;;;;5020396;28;20205;-90
2022/12/28 06:04:03;;;;;;;3.37;2.63;;;0.90;99.90;;;;;;5035920;28;20198;-89
2022/12/28 06:06:32;;;;;;;2.43;2.20;;;0.90;99.90;;;;;;5035267;28;20253;-90
2022/12/28 06:09:01;;;;;;;4.60;2.50;;;0.90;99.90;;;;;;5035558;28;20256;-90
2022/12/28 06:11:30;;;;;;;3.50;2.90;;;0.90;99.90;;;;;;5035029;28;20201;-90
2022/12/28 06:13:59;;;;;;;3.20;2.90;;;0.90;99.90;;;;;;5035643;28;20206;-90
2022/12/28 06:16:30;;;;;;;3.57;2.60;;;0.90;99.90;;;;;;5035624;28;20307;-89
2022/12/28 06:19:03;;;;;;;1.90;1.80;;;0.90;99.90;;;;;;5035131;28;20209;-92
2022/12/28 06:21:33;;;;;;;3.17;2.30;;;0.90;99.90;;;;;;5035177;28;20218;-90
2022/12/28 06:24:02;;;;;;;2.90;2.40;;;1.00;99.90;;;;;;5024377;28;20196;-92
2022/12/28 06:26:32;;;;;;;2.40;2.20;;;1.00;99.90;;;;;;5025801;28;20226;-90
2022/12/28 06:29:02;;;;;;;3.17;2.87;;;1.00;99.90;;;;;;5035329;28;20282;-90
2022/12/28 06:31:32;;;;;;;2.07;1.93;;;1.00;99.90;;;;;;5034571;28;20198;-91
2022/12/28 06:34:03;;;;;;;5.63;2.80;;;1.00;99.90;;;;;;5034981;28;20233;-90
2022/12/28 06:36:33;;;;;;;3.37;3.07;;;1.00;99.90;;;;;;5034554;28;20228;-88
2022/12/28 06:39:03;;;;;;;3.87;2.80;;;0.90;99.90;;;;;;5034464;28;20212;-91
2022/12/28 06:41:32;;;;;;;2.50;2.30;;;0.90;99.90;;;;;;5028423;28;20196;-91
2022/12/28 06:44:00;;;;;;;2.30;2.10;;;0.90;99.90;;;;;;5015145;28;20209;-93
2022/12/28 06:46:30;;;;;;;3.50;3.13;;;0.90;99.90;;;;;;5028360;28;20229;-89
2022/12/28 06:48:58;;;;;;;3.97;2.90;;;0.90;99.90;;;;;;5034594;28;20214;-89
2022/12/28 06:51:30;;;;;;;5.13;3.63;;;0.90;99.90;;;;;;5034100;28;20201;-89
2022/12/28 06:53:58;;;;;;;6.70;4.13;;;0.90;99.90;;;;;;5033981;28;20273;-90
2022/12/28 06:56:29;;;;;;;3.77;3.13;;;0.90;99.90;;;;;;5034227;28;20215;-90
2022/12/28 06:58:58;;;;;;;4.50;3.30;;;1.00;99.90;;;;;;5033751;28;20198;-89
2022/12/28 07:01:32;;;;;;;3.30;2.97;;;1.00;99.90;;;;;;5034397;28;20202;-90
2022/12/28 07:04:02;;;;;;;3.30;3.00;;;1.00;99.90;;;;;;5034575;28;20198;-91
2022/12/28 07:06:36;;;;;;;2.57;2.37;;;1.00;99.90;;;;;;5034571;28;20215;-90
2022/12/28 07:09:07;;;;;;;4.73;3.73;;;1.10;99.90;;;;;;5033939;28;20231;-90
2022/12/28 07:11:35;;;;;;;5.23;3.40;;;1.10;99.90;;;;;;5033959;28;20234;-91
2022/12/28 07:14:04;;;;;;;2.67;2.47;;;1.10;99.90;;;;;;5033934;28;20213;-89
2022/12/28 07:16:33;;;;;;;3.23;2.93;;;1.20;99.90;;;;;;5033713;28;20222;-91
2022/12/28 07:19:00;;;;;;;3.33;3.03;;;1.20;99.90;;;;;;5034033;28;20190;-89
2022/12/28 07:21:31;;;;;;;9.77;3.33;;;1.20;99.90;;;;;;5033690;28;20237;-89
2022/12/28 07:24:01;;;;;;;3.80;2.57;;;1.30;99.90;;;;;;5033787;28;20253;-90
2022/12/28 07:26:31;;;;;;;2.57;2.37;;;1.30;99.90;;;;;;5034108;28;20230;-91
2022/12/28 07:29:02;;;;;;;4.27;3.27;;;1.30;99.90;;;;;;5029654;28;20215;-90
2022/12/28 07:31:32;;;;;;;3.13;2.83;;;1.40;99.90;;;;;;5014329;28;20217;-91
2022/12/28 07:34:11;;;;;;;2.20;2.03;;;1.40;99.90;;;;;;5014480;28;20203;-90
2022/12/28 07:36:39;;;;;;;4.57;3.10;;;1.50;99.90;;;;;;5014166;28;20230;-90
2022/12/28 07:39:09;;;;;;;3.40;3.00;;;1.50;99.90;;;;;;5017302;28;20198;-90
2022/12/28 07:41:38;;;;;;;2.73;2.50;;;1.50;99.90;;;;;;5034075;28;20191;-89
2022/12/28 07:44:06;;;;;;;8.53;3.00;;;1.60;99.90;;;;;;5033638;28;20265;-89
2022/12/28 07:46:37;;;;;;;3.57;3.23;;;1.60;99.90;;;;;;5033374;28;20316;-89
2022/12/28 07:49:05;;;;;;;4.25;3.53;;;1.70;99.90;;;;;;5031455;28;20226;-89
2022/12/28 07:51:35;;;;;;;6.40;4.33;;;1.80;99.90;;;;;;5032790;28;20225;-90
2022/12/28 07:54:04;;;;;;;3.67;3.30;;;1.80;99.90;;;;;;5033043;28;20213;-90
2022/12/28 07:56:34;;;;;;;7.47;3.33;;;1.80;99.90;;;;;;5033295;28;20227;-90
2022/12/28 07:59:03;;;;;;;5.13;4.13;;;1.80;99.90;;;;;;5024673;28;20195;-90
2022/12/28 08:01:33;;;;;;;10.05;4.60;;;1.80;99.90;;;;;;5013938;28;20219;-91
2022/12/28 08:04:05;;;;;;;4.80;4.03;;;1.90;99.90;;;;;;5028089;28;20203;-90
2022/12/28 08:06:35;;;;;;;5.53;3.95;;;1.90;99.90;;;;;;5033116;28;20245;-90
2022/12/28 08:09:05;;;;;;;11.47;3.73;;;2.00;99.90;;;;;;5032691;28;20234;-90
2022/12/28 08:11:37;;;;;;;4.13;3.70;;;2.00;99.90;;;;;;5032947;28;20294;-91
2022/12/28 08:14:07;;;;;;;8.30;3.67;;;2.10;99.90;;;;;;5033364;28;20198;-91
2022/12/28 08:16:38;;;;;;;6.22;4.22;;;2.20;99.90;;;;;;5031889;28;20296;-90
2022/12/28 08:19:08;;;;;;;5.85;4.05;;;2.20;99.90;;;;;;5032513;28;20215;-93
2022/12/28 08:22:11;;;;;;;5.75;4.18;;;2.30;99.90;;;;;;5031219;28;20221;-93
2022/12/28 08:24:57;;;;;;;5.47;4.18;;;2.40;99.90;;;;;;5032110;28;20234;-92
2022/12/28 08:27:36;;;;;;;5.60;5.00;;;2.40;99.90;;;;;;5031843;28;20206;-90
2022/12/28 08:30:14;;;;;;;6.82;5.40;;;2.50;99.90;;;;;;5018869;28;20233;-89
2022/12/28 08:32:51;;;;;;;6.40;5.72;;;2.60;99.90;;;;;;5028163;28;20213;-89
2022/12/28 08:35:26;;;;;;;6.70;5.70;;;2.70;99.90;;;;;;5031867;28;20276;-89
2022/12/28 08:37:55;;;;;;;11.02;7.15;;;2.80;99.90;;;;;;5031803;28;20198;-91
2022/12/28 08:40:28;;;;;;;7.45;6.13;;;2.80;99.90;;;;;;5032249;28;20214;-91
2022/12/28 08:42:59;;;;;;;5.90;5.18;;;2.90;99.90;;;;;;5032478;28;20242;-91
2022/12/28 08:45:28;;;;;;;8.02;6.18;;;3.00;99.90;;;;;;5032355;28;20226;-92
2022/12/28 08:47:56;;;;;;;6.85;6.10;;;3.10;99.90;;;;;;5031725;28;20213;-90
2022/12/28 08:50:25;;;;;;;6.28;5.60;;;3.10;99.90;;;;;;5023002;28;20214;-90
2022/12/28 08:53:09;;;;;;;6.53;5.85;;;3.20;99.90;;;;;;5012100;28;20237;-90
2022/12/28 08:55:39;;;;;;;9.38;5.97;;;3.20;99.90;;;;;;5011966;28;20233;-93
2022/12/28 08:58:16;;;;;;;7.35;6.38;;;3.30;99.90;;;;;;5012301;28;20202;-95
2022/12/28 09:00:49;;;;;;;7.88;6.00;;;3.30;99.90;;;;;;5020796;28;20213;-94
2022/12/28 09:03:19;;;;;;;7.82;6.43;;;3.30;99.90;;;;;;5020835;28;20213;-93
2022/12/28 09:05:49;;;;;;;6.80;6.05;;;3.40;99.90;;;;;;5031493;28;20317;-94
2022/12/28 09:08:22;;;;;;;6.70;5.95;;;3.40;99.90;;;;;;5031860;28;20218;-91
2022/12/28 09:10:52;;;;;;;8.75;6.65;;;3.40;99.90;;;;;;5031628;28;20253;-91
2022/12/28 09:13:28;;;;;;;8.90;6.70;;;3.40;99.90;;;;;;5031745;28;20229;-91
2022/12/28 09:16:25;;;;;;;5.30;4.80;;;3.40;99.90;;;;;;5031932;28;20222;-91
2022/12/28 09:25:48;;;;;;;6.05;5.55;;;3.60;99.90;;;;;;4914848;29;20237;-92
2022/12/28 09:28:48;;;;;;;6.18;5.55;;;3.70;99.90;;;;;;4911643;29;20253;-92
2022/12/28 09:31:39;;;;;;;6.35;5.75;;;3.80;99.90;;;;;;4916501;29;20205;-92
2022/12/28 09:34:15;;;;;;;6.15;5.55;;;3.90;99.90;;;;;;4993398;28;20257;-92
2022/12/28 09:37:06;;;;;;;7.30;6.40;;;4.00;99.90;;;;;;5019764;28;20206;-90
2022/12/28 09:39:46;;;;;;;7.60;6.50;;;4.10;99.90;;;;;;5034700;28;20194;-90
2022/12/28 09:42:25;;;;;;;5.95;5.35;;;4.20;99.90;;;;;;5031530;28;20198;-90
2022/12/28 09:45:12;;;;;;;6.38;5.78;;;4.30;99.90;;;;;;5032224;28;20271;-90
2022/12/28 09:47:51;;;;;;;12.65;6.18;;;4.40;99.90;;;;;;5029084;28;20195;-90
2022/12/28 09:50:28;;;;;;;7.40;6.15;;;4.50;99.90;;;;;;5032865;28;20214;-90
2022/12/28 09:53:30;;;;;;;6.45;5.47;;;4.80;99.90;;;;;;5029835;28;20332;-89
2022/12/28 09:56:06;;;;;;;6.35;5.13;;;4.90;99.90;;;;;;5033701;28;20305;-92
2022/12/28 09:58:39;;;;;;;8.90;6.38;;;5.10;99.90;;;;;;5030133;28;20195;-92
2022/12/28 10:01:18;;;;;;;6.13;5.60;;;5.30;99.90;;;;;;5034360;28;20202;-90
2022/12/28 10:03:49;;;;;;;6.50;5.10;;;5.30;99.90;;;;;;5033983;28;20205;-90
2022/12/28 10:06:22;;;;;;;10.07;5.55;;;5.50;99.90;;;;;;5034357;28;20219;-89
2022/12/28 10:08:53;;;;;;;5.90;5.35;;;5.60;99.90;;;;;;5031601;28;20225;-89
2022/12/28 10:11:25;;;;;;;8.80;6.15;;;5.80;99.90;;;;;;5033511;28;20194;-90
2022/12/28 10:14:02;;;;;;;7.78;5.70;;;6.00;99.90;;;;;;5034138;28;20198;-91
2022/12/28 10:16:57;;;;;;;7.65;6.30;;;6.20;99.90;;;;;;5034391;28;20221;-90
2022/12/28 10:19:30;;;;;;;6.28;5.65;;;6.30;99.90;;;;;;5034791;28;20226;-90
2022/12/28 10:22:02;;;;;;;6.20;5.60;;;6.30;99.90;;;;;;5034483;28;20243;-90
2022/12/28 10:24:41;;;;;;;6.15;5.47;;;6.10;99.90;;;;;;5033172;28;20249;-89
2022/12/28 10:27:19;;;;;;;6.00;5.00;;;6.10;99.90;;;;;;5034275;28;20207;-89
2022/12/28 10:29:56;;;;;;;8.55;5.20;;;6.20;99.90;;;;;;5034036;28;20309;-90
2022/12/28 10:32:27;;;;;;;7.38;5.55;;;6.40;99.90;;;;;;5032819;28;20199;-90
2022/12/28 10:34:58;;;;;;;5.90;5.38;;;6.70;99.90;;;;;;5033779;28;20237;-89
2022/12/28 10:37:32;;;;;;;7.80;5.45;;;7.10;99.90;;;;;;5034392;28;20206;-90
2022/12/28 10:40:18;;;;;;;7.95;5.95;;;7.80;99.90;;;;;;5034161;28;20281;-89
2022/12/28 10:42:59;;;;;;;7.65;5.35;;;8.20;99.90;;;;;;5016355;28;20295;-90
2022/12/28 10:45:38;;;;;;;10.25;5.95;;;8.10;99.90;;;;;;5028540;28;20313;-89
2022/12/28 10:48:16;;;;;;;5.10;4.65;;;8.10;99.90;;;;;;5034029;28;20268;-90
2022/12/28 10:50:55;;;;;;;7.90;6.03;;;8.20;99.90;;;;;;5031921;28;20233;-89
2022/12/28 10:53:33;;;;;;;6.80;6.18;;;8.10;99.90;;;;;;5027599;28;20199;-90
2022/12/28 10:56:18;;;;;;;6.65;6.00;;;8.00;99.90;;;;;;5031312;28;20226;-89
2022/12/28 10:58:53;;;;;;;6.38;5.50;;;7.90;99.90;;;;;;5031941;28;20213;-89
2022/12/28 11:01:26;;;;;;;6.45;5.78;;;7.80;99.90;;;;;;5032816;28;20203;-91
2022/12/28 11:04:04;;;;;;;6.68;5.72;;;8.00;99.90;;;;;;5031246;28;20231;-93
2022/12/28 11:06:34;;;;;;;9.05;5.85;;;8.60;99.90;;;;;;5033807;28;20221;-92
2022/12/28 11:09:23;;;;;;;6.18;5.60;;;9.10;99.90;;;;;;5033847;28;20293;-90
2022/12/28 11:12:16;;;;;;;8.82;6.32;;;9.30;99.90;;;;;;5033263;28;20237;-90
2022/12/28 11:14:46;;;;;;;6.80;5.32;;;9.20;99.90;;;;;;5023902;28;20233;-89
2022/12/28 11:17:21;;;;;;;8.25;5.82;;;8.90;99.90;;;;;;5031569;28;20213;-90
2022/12/28 11:19:53;;;;;;;6.03;5.50;;;8.60;99.90;;;;;;5032507;28;20198;-89
2022/12/28 11:22:24;;;;;;;6.00;5.40;;;8.40;99.90;;;;;;5033158;28;20213;-90
2022/12/28 11:24:54;;;;;;;6.18;5.38;;;8.40;99.90;;;;;;5033053;28;20322;-90
2022/12/28 11:27:34;;;;;;;7.43;5.90;;;8.40;99.90;;;;;;5033158;28;20209;-89
2022/12/28 11:30:13;;;;;;;6.78;6.10;;;8.40;99.90;;;;;;5033044;28;20242;-91
2022/12/28 11:32:56;;;;;;;7.80;4.68;;;8.30;99.90;;;;;;5032964;28;20237;-88
2022/12/28 11:38:40;;;;;;;7.90;6.40;;;8.10;99.90;;;;;;5031216;28;20222;-89
2022/12/28 11:41:11;;;;;;;8.02;6.60;;;8.00;99.90;;;;;;5033066;28;20198;-90
2022/12/28 11:43:48;;;;;;;13.73;6.47;;;7.90;99.90;;;;;;5032362;28;20206;-90
2022/12/28 11:46:56;;;;;;;8.77;6.35;;;7.90;99.90;;;;;;5032860;28;20228;-89
2022/12/28 11:49:29;;;;;;;6.80;6.22;;;7.70;99.90;;;;;;4971842;28;20208;-90
2022/12/28 11:52:44;;;;;;;7.35;6.03;;;7.70;99.90;;;;;;5024844;28;20210;-90
2022/12/28 11:55:47;;;;;;;7.20;5.43;;;7.60;99.90;;;;;;5026648;28;20260;-88
2022/12/28 11:58:51;;;;;;;8.52;6.22;;;7.70;99.90;;;;;;5032196;28;20293;-88
2022/12/28 12:01:44;;;;;;;14.45;6.57;;;7.70;99.90;;;;;;5032434;28;20194;-90
2022/12/28 12:04:32;;;;;;;8.98;5.88;;;7.70;99.90;;;;;;5032898;28;20274;-90
2022/12/28 12:07:26;;;;;;;7.15;5.22;;;7.70;99.90;;;;;;5032239;28;20210;-89
2022/12/28 12:10:34;;;;;;;4.90;4.40;;;7.80;99.90;;;;;;5031438;28;20286;-90
2022/12/28 12:13:43;;;;;;;5.22;4.75;;;7.80;99.90;;;;;;5000556;28;20296;-90
2022/12/28 12:16:23;;;;;;;7.07;5.53;;;7.80;99.90;;;;;;5032650;28;20218;-90
2022/12/28 12:18:54;;;;;;;5.22;4.72;;;7.90;99.90;;;;;;5032187;28;20206;-90
2022/12/28 12:21:30;;;;;;;5.38;4.88;;;7.90;99.90;;;;;;5032135;28;20289;-90
2022/12/28 12:24:10;;;;;;;4.57;4.18;;;8.00;99.90;;;;;;5032086;28;20206;-90
2022/12/28 12:26:45;;;;;;;9.45;5.07;;;8.00;99.90;;;;;;5032164;28;20277;-90
2022/12/28 12:29:16;;;;;;;6.82;5.15;;;8.00;99.90;;;;;;5032003;28;20216;-90
2022/12/28 12:31:48;;;;;;;7.82;4.90;;;8.10;99.90;;;;;;5031736;28;20226;-90
2022/12/28 12:34:26;;;;;;;7.00;6.15;;;8.20;99.90;;;;;;5032271;28;20249;-90
2022/12/28 12:37:31;;;;;;;5.88;4.78;;;8.40;99.90;;;;;;5031224;28;20212;-90
2022/12/28 12:40:15;;;;;;;5.05;4.63;;;8.60;99.90;;;;;;5032002;28;20220;-90
2022/12/28 12:43:09;;;;;;;15.80;6.78;;;8.70;99.90;;;;;;5032220;28;20248;-88
2022/12/28 12:45:56;;;;;;;7.72;5.32;;;8.70;99.90;;;;;;5031996;28;20224;-88
2022/12/28 12:48:49;;;;;;;6.32;5.32;;;8.70;99.90;;;;;;5031505;28;20221;-88
2022/12/28 12:51:36;;;;;;;7.53;5.57;;;8.90;99.90;;;;;;5030969;28;20301;-88
2022/12/28 12:54:23;;;;;;;5.43;4.85;;;9.20;99.90;;;;;;5031962;28;20202;-87
2022/12/28 12:56:58;;;;;;;5.97;5.13;;;9.40;99.90;;;;;;5031761;28;20213;-87
2022/12/28 12:59:55;;;;;;;6.65;5.45;;;9.60;99.90;;;;;;5031452;28;20210;-88
2022/12/28 13:02:41;;;;;;;6.25;5.63;;;9.70;99.90;;;;;;5032409;28;20213;-88
2022/12/28 13:05:18;;;;;;;8.30;5.95;;;10.00;99.90;;;;;;5031738;28;20228;-91
2022/12/28 13:07:47;;;;;;;5.55;4.85;;;10.10;99.90;;;;;;5032727;28;20201;-89
2022/12/28 13:10:18;;;;;;;8.48;6.25;;;10.30;99.90;;;;;;5035885;28;20222;-95
2022/12/28 13:12:47;;;;;;;5.82;5.25;;;10.50;99.90;;;;;;5036135;28;20237;-95
2022/12/28 13:15:19;;;;;;;4.93;4.50;;;10.60;99.90;;;;;;5035938;28;20222;-89
2022/12/28 13:17:59;;;;;;;15.95;5.15;;;11.20;99.90;;;;;;5035570;28;20209;-91
2022/12/28 13:20:55;;;;;;;7.15;5.00;;;11.40;99.90;;;;;;5016150;28;20199;-91
2022/12/28 13:23:25;;;;;;;4.82;4.43;;;11.60;99.90;;;;;;5014894;28;20214;-91
2022/12/28 13:25:56;;;;;;;5.18;4.15;;;11.60;99.90;;;;;;5023409;28;20238;-89
2022/12/28 13:28:28;;;;;;;5.53;4.65;;;11.30;99.90;;;;;;5034399;28;20209;-83
2022/12/28 13:31:05;;;;;;;5.43;4.28;;;11.00;99.90;;;;;;5035199;28;20227;-84
2022/12/28 13:33:33;;;;;;;5.45;4.07;;;10.50;99.90;;;;;;5033717;28;20285;-85
2022/12/28 13:36:20;;;;;;;5.95;4.13;;;10.10;99.90;;;;;;5025276;28;20249;-87
2022/12/28 13:39:01;;;;;;;5.30;3.78;;;9.70;99.90;;;;;;5024348;28;20207;-87
2022/12/28 13:41:32;;;;;;;5.22;4.05;;;9.50;99.90;;;;;;5024893;28;20199;-88
2022/12/28 13:44:25;;;;;;;5.03;3.70;;;9.20;99.90;;;;;;5018088;28;20214;-86
2022/12/28 13:47:01;;;;;;;5.90;4.25;;;8.80;99.90;;;;;;5022226;28;20202;-86
2022/12/28 13:49:35;;;;;;;4.57;4.18;;;8.60;99.90;;;;;;5026924;28;20213;-86
2022/12/28 13:52:08;;;;;;;4.65;4.20;;;8.50;99.90;;;;;;5020999;28;20442;-86
2022/12/28 13:54:38;;;;;;;4.18;3.78;;;8.40;99.90;;;;;;5013859;28;20227;-87
2022/12/28 13:57:07;;;;;;;4.25;3.85;;;8.20;99.90;;;;;;5014729;28;20219;-87
2022/12/28 13:59:56;;;;;;;4.93;4.43;;;8.10;99.90;;;;;;5014628;28;20211;-86
2022/12/28 14:02:28;;;;;;;6.15;5.55;;;8.10;99.90;;;;;;5014988;28;20212;-86
2022/12/28 14:04:56;;;;;;;7.00;6.25;;;8.00;99.90;;;;;;5014763;28;20235;-86
2022/12/28 14:07:28;;;;;;;9.27;6.38;;;8.00;99.90;;;;;;5014100;28;20234;-86
2022/12/28 14:09:57;;;;;;;13.35;9.07;;;8.00;99.90;;;;;;5014957;28;20199;-86